createdAt,value
2023-03-22T00:00:37.581Z,0.00
2023-03-22T00:01:36.693Z,0.00
2023-03-22T00:02:36.944Z,0.02
2023-03-22T00:03:36.162Z,0.00
2023-03-22T00:04:36.387Z,0.02
2023-03-22T00:05:36.663Z,0.00
2023-03-22T00:06:35.847Z,0.00
2023-03-22T00:08:36.420Z,0.04
2023-03-22T00:09:36.682Z,0.00
2023-03-22T00:10:35.847Z,0.00
2023-03-22T00:11:36.138Z,0.02
2023-03-22T00:12:36.400Z,0.04
2023-03-22T00:13:36.694Z,0.01
2023-03-22T00:14:35.903Z,0.00
2023-03-22T00:15:36.174Z,0.00
2023-03-22T00:16:36.463Z,0.02
2023-03-22T00:17:35.668Z,0.02
2023-03-22T00:18:35.950Z,0.04
2023-03-22T00:19:35.921Z,0.00
2023-03-22T00:20:37.698Z,0.00
2023-03-22T00:21:36.435Z,0.00
2023-03-22T00:22:37.684Z,0.00
2023-03-22T00:23:35.953Z,0.02
2023-03-22T00:24:36.223Z,0.02
2023-03-22T00:25:36.485Z,0.02
2023-03-22T00:26:35.720Z,0.00
2023-03-22T00:27:35.989Z,0.02
2023-03-22T00:28:36.284Z,0.00
2023-03-22T00:29:36.544Z,0.00
2023-03-22T00:30:35.769Z,0.00
2023-03-22T00:31:37.034Z,0.00
2023-03-22T00:32:36.245Z,0.00
2023-03-22T00:33:37.448Z,0.00
2023-03-22T00:34:35.742Z,0.02
2023-03-22T00:35:36.109Z,0.00
2023-03-22T00:36:36.286Z,0.00
2023-03-22T00:37:35.540Z,0.02
2023-03-22T00:38:42.037Z,0.00
2023-03-22T00:39:36.508Z,0.02
2023-03-22T00:40:35.792Z,0.00
2023-03-22T00:41:36.086Z,0.00
2023-03-22T00:42:36.320Z,0.00
2023-03-22T00:43:36.492Z,0.00
2023-03-22T00:44:35.809Z,0.00
2023-03-22T00:45:36.051Z,0.00
2023-03-22T00:46:36.362Z,0.00
2023-03-22T00:47:35.571Z,0.02
2023-03-22T00:48:35.793Z,0.00
2023-03-22T00:49:36.078Z,0.02
2023-03-22T00:50:36.296Z,0.00
2023-03-22T00:51:36.529Z,0.00
2023-03-22T00:52:35.967Z,0.02
2023-03-22T00:53:37.080Z,0.00
2023-03-22T00:54:35.347Z,0.00
2023-03-22T00:55:35.616Z,0.00
2023-03-22T00:56:36.793Z,0.02
2023-03-22T00:57:36.178Z,0.02
2023-03-22T00:58:35.359Z,0.00
2023-03-22T00:59:35.608Z,0.00
2023-03-22T01:00:37.083Z,0.00
2023-03-22T01:01:36.246Z,0.00
2023-03-22T01:02:35.409Z,0.00
2023-03-22T01:03:35.319Z,0.00
2023-03-22T01:04:35.520Z,0.00
2023-03-22T01:05:35.858Z,0.00
2023-03-22T01:06:35.065Z,0.02
2023-03-22T01:07:35.331Z,0.00
2023-03-22T01:08:35.649Z,0.00
2023-03-22T01:09:35.859Z,0.00
2023-03-22T01:10:35.096Z,0.02
2023-03-22T01:11:35.372Z,0.02
2023-03-22T01:12:35.624Z,0.02
2023-03-22T01:13:35.922Z,0.02
2023-03-22T01:14:35.163Z,0.00
2023-03-22T01:15:35.437Z,0.00
2023-03-22T01:16:35.793Z,0.00
2023-03-22T01:17:34.969Z,0.01
2023-03-22T01:18:35.270Z,0.00
2023-03-22T01:19:35.838Z,0.00
2023-03-22T01:20:35.798Z,0.00
2023-03-22T01:21:35.032Z,0.00
2023-03-22T01:23:36.537Z,0.00
2023-03-22T01:24:35.867Z,0.00
2023-03-22T01:25:35.096Z,0.00
2023-03-22T01:26:35.347Z,0.00
2023-03-22T01:27:34.988Z,0.02
2023-03-22T01:28:35.168Z,0.02
2023-03-22T01:29:35.448Z,0.02
2023-03-22T01:30:35.743Z,0.02
2023-03-22T01:31:34.870Z,0.00
2023-03-22T01:32:35.076Z,0.00
2023-03-22T01:33:35.340Z,0.02
2023-03-22T01:34:35.617Z,0.00
2023-03-22T01:35:34.870Z,0.01
2023-03-22T01:36:35.113Z,0.00
2023-03-22T01:37:36.263Z,0.02
2023-03-22T01:38:35.555Z,0.01
2023-03-22T01:39:35.698Z,0.02
2023-03-22T01:40:35.944Z,0.00
2023-03-22T01:41:35.278Z,0.00
2023-03-22T01:42:35.510Z,0.00
2023-03-22T01:43:34.710Z,0.00
2023-03-22T01:44:34.995Z,0.00
2023-03-22T01:45:35.244Z,0.00
2023-03-22T01:46:35.614Z,0.00
2023-03-22T01:47:35.735Z,0.02
2023-03-22T01:48:35.032Z,0.00
2023-03-22T01:49:36.251Z,0.00
2023-03-22T01:50:35.466Z,0.02
2023-03-22T01:51:35.741Z,0.00
2023-03-22T01:52:35.071Z,0.02
2023-03-22T01:53:36.259Z,0.02
2023-03-22T01:54:35.476Z,0.00
2023-03-22T01:55:35.776Z,0.00
2023-03-22T01:56:36.036Z,0.02
2023-03-22T01:57:35.427Z,0.00
2023-03-22T01:58:35.548Z,0.02
2023-03-22T01:59:35.805Z,0.00
2023-03-22T02:01:34.464Z,0.02
2023-03-22T02:02:34.746Z,0.00
2023-03-22T02:03:35.000Z,0.00
2023-03-22T02:04:35.257Z,0.00
2023-03-22T02:05:34.492Z,0.00
2023-03-22T02:06:34.755Z,0.00
2023-03-22T02:07:35.027Z,0.00
2023-03-22T02:08:35.294Z,0.02
2023-03-22T02:09:35.867Z,0.00
2023-03-22T02:10:35.764Z,0.00
2023-03-22T02:11:35.102Z,0.00
2023-03-22T02:12:35.266Z,0.00
2023-03-22T02:13:34.580Z,0.00
2023-03-22T02:14:35.878Z,0.02
2023-03-22T02:15:36.080Z,0.00
2023-03-22T02:16:34.305Z,0.00
2023-03-22T02:17:35.486Z,0.00
2023-03-22T02:18:34.816Z,0.02
2023-03-22T02:19:35.076Z,0.01
2023-03-22T02:20:34.329Z,0.00
2023-03-22T02:21:35.570Z,0.00
2023-03-22T02:22:34.898Z,0.00
2023-03-22T02:23:34.157Z,0.00
2023-03-22T02:24:35.376Z,0.00
2023-03-22T02:25:34.692Z,0.02
2023-03-22T02:26:35.935Z,0.00
2023-03-22T02:27:35.161Z,0.00
2023-03-22T02:28:35.425Z,0.02
2023-03-22T02:29:34.772Z,0.00
2023-03-22T02:30:34.013Z,0.00
2023-03-22T02:31:34.292Z,0.00
2023-03-22T02:32:34.529Z,0.00
2023-03-22T02:33:35.741Z,0.00
2023-03-22T02:34:34.025Z,0.02
2023-03-22T02:35:34.369Z,0.00
2023-03-22T02:36:34.570Z,0.02
2023-03-22T02:37:34.835Z,0.00
2023-03-22T02:38:34.082Z,0.00
2023-03-22T02:39:34.332Z,0.01
2023-03-22T02:40:34.895Z,0.00
2023-03-22T02:41:35.805Z,0.00
2023-03-22T02:42:34.074Z,0.00
2023-03-22T02:43:34.370Z,0.02
2023-03-22T02:44:34.649Z,0.02
2023-03-22T02:45:34.843Z,0.02
2023-03-22T02:46:34.245Z,0.00
2023-03-22T02:48:35.680Z,0.00
2023-03-22T02:49:33.990Z,0.00
2023-03-22T02:50:35.238Z,0.02
2023-03-22T02:51:34.634Z,0.00
2023-03-22T02:52:33.825Z,0.02
2023-03-22T02:53:34.106Z,0.00
2023-03-22T02:54:35.374Z,0.00
2023-03-22T02:55:33.648Z,0.00
2023-03-22T02:56:33.947Z,0.00
2023-03-22T02:57:35.264Z,0.00
2023-03-22T02:58:35.484Z,0.00
2023-03-22T02:59:33.759Z,0.01
2023-03-22T03:00:34.127Z,0.00
2023-03-22T03:01:34.372Z,0.00
2023-03-22T03:02:33.584Z,0.00
2023-03-22T03:03:33.947Z,0.00
2023-03-22T03:04:34.136Z,0.00
2023-03-22T03:05:34.409Z,0.00
2023-03-22T03:06:33.665Z,0.00
2023-03-22T03:07:33.933Z,0.00
2023-03-22T03:08:34.214Z,0.00
2023-03-22T03:09:34.514Z,0.01
2023-03-22T03:10:33.714Z,0.00
2023-03-22T03:11:34.011Z,0.00
2023-03-22T03:12:34.251Z,0.00
2023-03-22T03:13:33.507Z,0.00
2023-03-22T03:14:33.874Z,0.00
2023-03-22T03:15:34.037Z,0.00
2023-03-22T03:16:34.365Z,0.00
2023-03-22T03:17:33.544Z,0.00
2023-03-22T03:18:33.837Z,0.00
2023-03-22T03:19:34.114Z,0.00
2023-03-22T03:20:33.369Z,0.00
2023-03-22T03:21:33.619Z,0.02
2023-03-22T03:22:33.909Z,0.00
2023-03-22T03:23:34.216Z,0.00
2023-03-22T03:24:33.395Z,0.01
2023-03-22T03:25:33.660Z,0.02
2023-03-22T03:26:33.908Z,0.00
2023-03-22T03:27:34.180Z,0.00
2023-03-22T03:28:33.379Z,0.02
2023-03-22T03:29:33.670Z,0.00
2023-03-22T03:30:33.958Z,0.00
2023-03-22T03:31:34.194Z,0.00
2023-03-22T03:32:33.370Z,0.00
2023-03-22T03:33:33.645Z,0.04
2023-03-22T03:34:33.891Z,0.02
2023-03-22T03:35:33.171Z,0.00
2023-03-22T03:36:33.555Z,0.02
2023-03-22T03:37:33.689Z,0.00
2023-03-22T03:38:33.979Z,0.00
2023-03-22T03:39:33.214Z,0.00
2023-03-22T03:40:33.484Z,0.02
2023-03-22T03:41:33.774Z,0.00
2023-03-22T03:42:34.041Z,0.00
2023-03-22T03:43:33.294Z,0.00
2023-03-22T03:44:33.523Z,0.00
2023-03-22T03:45:33.798Z,0.02
2023-03-22T03:46:33.034Z,0.00
2023-03-22T03:47:33.340Z,0.02
2023-03-22T03:48:33.558Z,0.00
2023-03-22T03:49:33.840Z,0.02
2023-03-22T03:50:33.069Z,0.02
2023-03-22T03:51:33.364Z,0.00
2023-03-22T03:52:33.805Z,0.00
2023-03-22T03:53:33.939Z,0.01
2023-03-22T03:54:33.154Z,0.00
2023-03-22T03:55:33.448Z,0.02
2023-03-22T03:56:33.691Z,0.00
2023-03-22T03:57:32.934Z,0.02
2023-03-22T03:58:33.220Z,0.02
2023-03-22T03:59:33.491Z,0.02
2023-03-22T04:01:32.953Z,0.02
2023-03-22T04:02:33.247Z,0.00
2023-03-22T04:03:33.632Z,0.00
2023-03-22T04:04:33.785Z,0.02
2023-03-22T04:05:32.973Z,0.02
2023-03-22T04:06:33.260Z,0.00
2023-03-22T04:07:33.539Z,0.02
2023-03-22T04:08:32.749Z,0.01
2023-03-22T04:09:33.174Z,0.01
2023-03-22T04:10:33.289Z,0.00
2023-03-22T04:11:33.542Z,0.00
2023-03-22T04:12:32.783Z,0.02
2023-03-22T04:13:33.043Z,0.02
2023-03-22T04:14:33.356Z,0.02
2023-03-22T04:15:33.623Z,0.02
2023-03-22T04:16:32.876Z,0.00
2023-03-22T04:17:33.076Z,0.01
2023-03-22T04:18:33.322Z,0.02
2023-03-22T04:19:33.602Z,0.02
2023-03-22T04:20:32.860Z,0.02
2023-03-22T04:21:33.073Z,0.00
2023-03-22T04:22:33.318Z,0.02
2023-03-22T04:23:32.559Z,0.00
2023-03-22T04:24:32.811Z,0.00
2023-03-22T04:25:33.068Z,0.02
2023-03-22T04:26:33.347Z,0.02
2023-03-22T04:27:32.538Z,0.02
2023-03-22T04:28:32.798Z,0.00
2023-03-22T04:29:33.050Z,0.02
2023-03-22T04:30:33.326Z,0.00
2023-03-22T04:31:32.567Z,0.00
2023-03-22T04:32:32.844Z,0.02
2023-03-22T04:33:33.094Z,0.02
2023-03-22T04:34:33.379Z,0.00
2023-03-22T04:35:32.603Z,0.02
2023-03-22T04:36:32.921Z,0.02
2023-03-22T04:38:32.344Z,0.00
2023-03-22T04:39:32.585Z,0.02
2023-03-22T04:40:32.856Z,0.00
2023-03-22T04:41:33.151Z,0.00
2023-03-22T04:42:32.394Z,0.00
2023-03-22T04:43:32.700Z,0.02
2023-03-22T04:44:32.966Z,0.02
2023-03-22T04:45:32.226Z,0.00
2023-03-22T04:46:32.553Z,0.01
2023-03-22T04:47:32.804Z,0.05
2023-03-22T04:48:33.085Z,0.05
2023-03-22T04:49:32.345Z,0.10
2023-03-22T04:50:32.603Z,0.03
2023-03-22T04:51:32.875Z,0.07
2023-03-22T04:52:32.161Z,0.02
2023-03-22T04:53:32.441Z,0.03
2023-03-22T04:54:32.664Z,0.06
2023-03-22T04:55:32.956Z,0.08
2023-03-22T04:56:33.235Z,0.17
2023-03-22T04:57:32.484Z,0.24
2023-03-22T04:58:32.741Z,0.18
2023-03-22T04:59:33.043Z,0.31
2023-03-22T05:00:32.325Z,0.27
2023-03-22T05:01:32.572Z,0.28
2023-03-22T05:02:32.925Z,0.14
2023-03-22T05:03:32.075Z,0.32
2023-03-22T05:04:32.328Z,0.31
2023-03-22T05:05:32.639Z,0.31
2023-03-22T05:06:32.895Z,0.38
2023-03-22T05:07:32.130Z,0.34
2023-03-22T05:08:33.336Z,0.47
2023-03-22T05:09:32.663Z,0.66
2023-03-22T05:10:31.873Z,0.86
2023-03-22T05:11:32.155Z,1.08
2023-03-22T05:12:32.475Z,1.11
2023-03-22T05:13:33.650Z,1.08
2023-03-22T05:14:31.973Z,1.15
2023-03-22T05:15:32.179Z,1.26
2023-03-22T05:16:32.543Z,1.44
2023-03-22T05:17:32.734Z,1.65
2023-03-22T05:18:32.001Z,1.89
2023-03-22T05:19:32.240Z,2.09
2023-03-22T05:20:33.478Z,2.35
2023-03-22T05:21:32.699Z,2.65
2023-03-22T05:22:32.024Z,2.90
2023-03-22T05:23:32.330Z,3.34
2023-03-22T05:24:33.515Z,3.66
2023-03-22T05:25:31.778Z,4.29
2023-03-22T05:26:32.061Z,4.88
2023-03-22T05:27:32.315Z,5.51
2023-03-22T05:28:32.675Z,6.66
2023-03-22T05:29:31.820Z,8.17
2023-03-22T05:30:32.139Z,8.91
2023-03-22T05:31:32.383Z,10.09
2023-03-22T05:32:31.574Z,11.72
2023-03-22T05:33:31.888Z,13.26
2023-03-22T05:34:32.357Z,14.09
2023-03-22T05:35:32.420Z,15.55
2023-03-22T05:36:31.647Z,15.94
2023-03-22T05:37:31.894Z,17.63
2023-03-22T05:38:32.199Z,20.00
2023-03-22T05:39:32.523Z,23.82
2023-03-22T05:40:31.722Z,27.99
2023-03-22T05:41:32.937Z,31.01
2023-03-22T05:42:32.260Z,33.92
2023-03-22T05:43:31.489Z,36.22
2023-03-22T05:44:31.776Z,38.90
2023-03-22T05:45:32.131Z,44.87
2023-03-22T05:46:32.423Z,51.81
2023-03-22T05:47:31.566Z,56.55
2023-03-22T05:48:31.823Z,60.97
2023-03-22T05:49:32.114Z,63.86
2023-03-22T05:50:32.417Z,67.30
2023-03-22T05:51:31.574Z,69.33
2023-03-22T05:52:31.833Z,70.98
2023-03-22T05:53:32.097Z,69.92
2023-03-22T05:54:31.353Z,70.45
2023-03-22T05:55:31.565Z,68.38
2023-03-22T05:56:31.864Z,65.81
2023-03-22T05:57:32.081Z,65.10
2023-03-22T05:58:31.296Z,70.36
2023-03-22T05:59:31.557Z,79.12
2023-03-22T06:00:31.800Z,95.61
2023-03-22T06:01:32.075Z,114.37
2023-03-22T06:02:31.320Z,116.05
2023-03-22T06:03:31.644Z,108.70
2023-03-22T06:04:32.747Z,99.47
2023-03-22T06:05:32.996Z,91.49
2023-03-22T06:06:31.262Z,87.69
2023-03-22T06:07:31.586Z,84.16
2023-03-22T06:08:31.791Z,83.12
2023-03-22T06:09:32.021Z,82.79
2023-03-22T06:10:31.236Z,81.73
2023-03-22T06:11:33.497Z,79.47
2023-03-22T06:12:31.740Z,78.77
2023-03-22T06:13:32.068Z,82.40
2023-03-22T06:14:32.137Z,88.68
2023-03-22T06:15:31.428Z,94.17
2023-03-22T06:16:31.756Z,97.17
2023-03-22T06:17:31.938Z,108.32
2023-03-22T06:18:31.215Z,117.32
2023-03-22T06:19:31.467Z,120.78
2023-03-22T06:20:32.659Z,132.34
2023-03-22T06:21:31.994Z,142.64
2023-03-22T06:22:31.213Z,150.08
2023-03-22T06:23:31.571Z,154.08
2023-03-22T06:24:32.723Z,161.68
2023-03-22T06:25:31.969Z,159.26
2023-03-22T06:26:32.260Z,171.63
2023-03-22T06:27:31.626Z,183.91
2023-03-22T06:28:31.840Z,189.06
2023-03-22T06:29:31.066Z,189.46
2023-03-22T06:30:31.441Z,193.37
2023-03-22T06:31:31.538Z,190.28
2023-03-22T06:32:31.816Z,194.45
2023-03-22T06:33:31.999Z,249.05
2023-03-22T06:34:31.419Z,196.25
2023-03-22T06:35:31.577Z,182.90
2023-03-22T06:36:31.748Z,217.54
2023-03-22T06:37:31.978Z,190.59
2023-03-22T06:38:31.311Z,187.15
2023-03-22T06:39:31.629Z,193.00
2023-03-22T06:40:31.760Z,198.39
2023-03-22T06:41:32.020Z,197.43
2023-03-22T06:42:31.308Z,181.45
2023-03-22T06:43:32.508Z,176.15
2023-03-22T06:44:30.875Z,191.13
2023-03-22T06:45:31.180Z,164.46
2023-03-22T06:46:32.468Z,159.96
2023-03-22T06:47:32.546Z,144.75
2023-03-22T06:48:30.849Z,137.68
2023-03-22T06:49:32.044Z,133.32
2023-03-22T06:50:31.390Z,129.63
2023-03-22T06:51:31.531Z,132.63
2023-03-22T06:52:30.820Z,136.97
2023-03-22T06:53:31.076Z,145.14
2023-03-22T06:54:31.349Z,150.63
2023-03-22T06:55:30.581Z,154.36
2023-03-22T06:56:30.865Z,176.10
2023-03-22T06:57:31.069Z,201.27
2023-03-22T06:58:32.377Z,217.17
2023-03-22T06:59:30.570Z,238.35
2023-03-22T07:00:31.809Z,249.37
2023-03-22T07:01:31.135Z,214.59
2023-03-22T07:02:31.330Z,192.80
2023-03-22T07:03:31.540Z,194.70
2023-03-22T07:04:30.830Z,199.60
2023-03-22T07:05:32.010Z,219.40
2023-03-22T07:06:32.268Z,248.68
2023-03-22T07:07:30.675Z,260.23
2023-03-22T07:08:31.748Z,310.23
2023-03-22T07:09:32.039Z,330.31
2023-03-22T07:10:32.302Z,359.61
2023-03-22T07:11:31.467Z,377.03
2023-03-22T07:12:30.791Z,396.48
2023-03-22T07:13:31.048Z,409.44
2023-03-22T07:14:32.253Z,410.14
2023-03-22T07:15:31.509Z,425.21
2023-03-22T07:16:31.770Z,414.23
2023-03-22T07:17:31.041Z,383.93
2023-03-22T07:18:30.298Z,412.27
2023-03-22T07:19:31.467Z,369.26
2023-03-22T07:20:31.275Z,464.04
2023-03-22T07:21:30.602Z,421.68
2023-03-22T07:22:31.832Z,452.83
2023-03-22T07:23:31.202Z,401.82
2023-03-22T07:24:30.422Z,458.71
2023-03-22T07:25:30.690Z,381.02
2023-03-22T07:26:31.896Z,381.29
2023-03-22T07:27:30.180Z,368.14
2023-03-22T07:28:30.202Z,426.73
2023-03-22T07:29:30.551Z,398.37
2023-03-22T07:30:31.646Z,405.57
2023-03-22T07:31:30.933Z,430.28
2023-03-22T07:32:31.122Z,436.15
2023-03-22T07:33:31.365Z,446.84
2023-03-22T07:34:30.623Z,498.15
2023-03-22T07:35:30.919Z,432.40
2023-03-22T07:36:30.095Z,442.44
2023-03-22T07:37:30.354Z,484.28
2023-03-22T07:38:31.541Z,494.47
2023-03-22T07:39:30.846Z,472.74
2023-03-22T07:40:30.297Z,494.86
2023-03-22T07:41:31.263Z,546.81
2023-03-22T07:42:30.527Z,667.78
2023-03-22T07:43:30.772Z,584.01
2023-03-22T07:44:30.026Z,558.50
2023-03-22T07:45:30.235Z,771.66
2023-03-22T07:46:30.609Z,733.73
2023-03-22T07:47:40.767Z,695.56
2023-03-22T07:48:31.940Z,654.63
2023-03-22T07:49:30.226Z,569.49
2023-03-22T07:50:31.448Z,818.16
2023-03-22T07:51:30.753Z,806.84
2023-03-22T07:52:29.954Z,705.66
2023-03-22T07:53:31.134Z,563.68
2023-03-22T07:54:34.108Z,633.26
2023-03-22T07:55:31.651Z,452.44
2023-03-22T07:56:30.850Z,487.39
2023-03-22T07:57:31.416Z,505.61
2023-03-22T07:58:31.329Z,473.08
2023-03-22T07:59:30.612Z,461.64
2023-03-22T08:00:29.884Z,470.46
2023-03-22T08:01:30.042Z,489.75
2023-03-22T08:02:31.226Z,505.36
2023-03-22T08:03:30.603Z,511.35
2023-03-22T08:04:30.866Z,528.68
2023-03-22T08:05:30.879Z,551.27
2023-03-22T08:06:31.122Z,575.83
2023-03-22T08:07:30.399Z,896.91
2023-03-22T08:08:29.616Z,882.73
2023-03-22T08:09:33.847Z,583.96
2023-03-22T08:10:31.021Z,628.90
2023-03-22T08:11:30.296Z,608.02
2023-03-22T08:12:30.456Z,610.55
2023-03-22T08:13:30.708Z,534.14
2023-03-22T08:14:36.631Z,464.55
2023-03-22T08:15:31.309Z,502.57
2023-03-22T08:16:31.450Z,449.50
2023-03-22T08:17:30.606Z,398.71
2023-03-22T08:18:29.910Z,350.03
2023-03-22T08:19:30.166Z,347.68
2023-03-22T08:20:31.374Z,375.95
2023-03-22T08:21:30.576Z,415.08
2023-03-22T08:22:29.837Z,453.36
2023-03-22T08:23:40.956Z,490.60
2023-03-22T08:24:31.352Z,617.79
2023-03-22T08:25:30.506Z,656.27
2023-03-22T08:26:30.741Z,692.75
2023-03-22T08:27:30.998Z,747.54
2023-03-22T08:28:31.244Z,786.52
2023-03-22T08:29:29.503Z,758.36
2023-03-22T08:30:29.777Z,755.50
2023-03-22T08:31:31.096Z,797.87
2023-03-22T08:32:31.488Z,856.94
2023-03-22T08:33:30.488Z,736.91
2023-03-22T08:34:29.724Z,824.17
2023-03-22T08:35:30.918Z,703.66
2023-03-22T08:36:31.162Z,742.21
2023-03-22T08:37:29.444Z,895.78
2023-03-22T08:38:29.697Z,989.95
2023-03-22T08:39:29.944Z,683.08
2023-03-22T08:40:30.248Z,816.96
2023-03-22T08:41:29.416Z,851.20
2023-03-22T08:42:30.565Z,861.07
2023-03-22T08:43:29.863Z,964.85
2023-03-22T08:44:29.098Z,650.42
2023-03-22T08:45:29.374Z,629.99
2023-03-22T08:46:29.658Z,954.82
2023-03-22T08:47:30.781Z,903.64
2023-03-22T08:48:30.054Z,803.45
2023-03-22T08:49:29.294Z,821.01
2023-03-22T08:50:30.518Z,612.07
2023-03-22T08:51:30.692Z,630.74
2023-03-22T08:52:30.940Z,625.91
2023-03-22T08:53:30.158Z,641.92
2023-03-22T08:54:30.437Z,708.46
2023-03-22T08:55:30.633Z,747.48
2023-03-22T08:56:30.863Z,674.60
2023-03-22T08:57:30.066Z,820.80
2023-03-22T08:58:30.283Z,854.80
2023-03-22T08:59:29.554Z,766.81
2023-03-22T09:00:45.780Z,720.96
2023-03-22T09:01:30.028Z,797.71
2023-03-22T09:02:29.307Z,804.45
2023-03-22T09:03:29.401Z,1003.68
2023-03-22T09:04:29.783Z,965.34
2023-03-22T09:05:28.920Z,1054.64
2023-03-22T09:06:29.006Z,1142.65
2023-03-22T09:07:30.197Z,1199.48
2023-03-22T09:08:30.397Z,1096.99
2023-03-22T09:09:30.609Z,970.19
2023-03-22T09:10:29.775Z,953.64
2023-03-22T09:11:30.002Z,1087.47
2023-03-22T09:12:29.230Z,1042.75
2023-03-22T09:13:30.402Z,1107.28
2023-03-22T09:14:29.666Z,1223.92
2023-03-22T09:15:28.814Z,1173.78
2023-03-22T09:16:29.095Z,1163.11
2023-03-22T09:17:29.290Z,1172.72
2023-03-22T09:18:29.476Z,757.81
2023-03-22T09:19:28.782Z,1195.05
2023-03-22T09:20:28.937Z,846.24
2023-03-22T09:21:29.271Z,1149.11
2023-03-22T09:22:29.344Z,1104.51
2023-03-22T09:23:29.622Z,1108.58
2023-03-22T09:24:28.696Z,1120.04
2023-03-22T09:25:28.915Z,900.48
2023-03-22T09:26:29.205Z,1208.97
2023-03-22T09:27:29.415Z,1204.07
2023-03-22T09:28:30.538Z,1183.27
2023-03-22T09:29:29.720Z,1175.86
2023-03-22T09:30:28.909Z,655.71
2023-03-22T09:31:30.085Z,624.84
2023-03-22T09:32:29.344Z,633.39
2023-03-22T09:33:28.487Z,800.03
2023-03-22T09:34:29.657Z,653.06
2023-03-22T09:35:29.042Z,958.01
2023-03-22T09:36:30.144Z,1013.06
2023-03-22T09:37:29.398Z,650.10
2023-03-22T09:38:29.583Z,662.46
2023-03-22T09:39:29.796Z,1016.90
2023-03-22T09:40:29.063Z,717.12
2023-03-22T09:41:30.243Z,812.91
2023-03-22T09:42:28.476Z,1217.09
2023-03-22T09:43:28.698Z,1160.92
2023-03-22T09:44:28.953Z,702.28
2023-03-22T09:45:29.179Z,767.34
2023-03-22T09:46:29.422Z,792.68
2023-03-22T09:47:42.220Z,997.03
2023-03-22T09:48:29.888Z,783.57
2023-03-22T09:49:29.045Z,813.05
2023-03-22T09:50:29.237Z,898.83
2023-03-22T09:51:28.427Z,1342.35
2023-03-22T09:52:29.628Z,1376.10
2023-03-22T09:53:28.848Z,885.93
2023-03-22T09:54:30.048Z,859.99
2023-03-22T09:55:29.249Z,1245.66
2023-03-22T09:56:28.538Z,1182.96
2023-03-22T09:57:29.753Z,1212.90
2023-03-22T09:58:29.970Z,1257.12
2023-03-22T09:59:29.133Z,1308.22
2023-03-22T10:00:29.547Z,1357.09
2023-03-22T10:01:29.797Z,1306.28
2023-03-22T10:02:28.946Z,1309.03
2023-03-22T10:03:28.099Z,1296.41
2023-03-22T10:04:28.408Z,1312.65
2023-03-22T10:05:28.532Z,1332.51
2023-03-22T10:06:29.697Z,1354.48
2023-03-22T10:07:29.914Z,1321.97
2023-03-22T10:08:28.157Z,1309.77
2023-03-22T10:09:28.338Z,1242.41
2023-03-22T10:10:28.571Z,1234.71
2023-03-22T10:11:29.745Z,1263.54
2023-03-22T10:12:28.924Z,1299.46
2023-03-22T10:13:28.207Z,1292.66
2023-03-22T10:14:28.429Z,1194.24
2023-03-22T10:15:28.637Z,1188.16
2023-03-22T10:16:28.960Z,1205.20
2023-03-22T10:17:28.030Z,1205.45
2023-03-22T10:18:28.258Z,1192.28
2023-03-22T10:19:29.450Z,1067.86
2023-03-22T10:20:28.707Z,1108.46
2023-03-22T10:21:27.907Z,1024.84
2023-03-22T10:22:28.123Z,1067.43
2023-03-22T10:23:28.437Z,1049.53
2023-03-22T10:24:29.594Z,1157.91
2023-03-22T10:25:28.738Z,1101.99
2023-03-22T10:26:28.052Z,958.31
2023-03-22T10:27:28.259Z,972.04
2023-03-22T10:28:29.468Z,1118.58
2023-03-22T10:29:28.741Z,1204.28
2023-03-22T10:30:27.893Z,1166.06
2023-03-22T10:31:28.203Z,1224.34
2023-03-22T10:32:29.285Z,1210.73
2023-03-22T10:33:29.532Z,1130.17
2023-03-22T10:34:27.788Z,1047.10
2023-03-22T10:35:28.994Z,1049.04
2023-03-22T10:36:29.153Z,1151.51
2023-03-22T10:37:29.389Z,1163.79
2023-03-22T10:38:28.604Z,1057.00
2023-03-22T10:39:27.887Z,1127.14
2023-03-22T10:40:28.105Z,940.23
2023-03-22T10:41:28.355Z,908.96
2023-03-22T10:42:27.532Z,1023.73
2023-03-22T10:43:27.762Z,1177.87
2023-03-22T10:44:27.984Z,1197.72
2023-03-22T10:45:28.343Z,1247.36
2023-03-22T10:46:28.466Z,1328.16
2023-03-22T10:47:28.644Z,1336.90
2023-03-22T10:48:27.874Z,1250.00
2023-03-22T10:49:28.013Z,1274.10
2023-03-22T10:50:28.312Z,1282.43
2023-03-22T10:51:27.455Z,1166.55
2023-03-22T10:52:28.690Z,1163.69
2023-03-22T10:53:27.843Z,1108.55
2023-03-22T10:54:29.027Z,1335.25
2023-03-22T10:55:29.320Z,1240.10
2023-03-22T10:56:28.432Z,1149.05
2023-03-22T10:57:28.653Z,1163.44
2023-03-22T10:58:27.896Z,845.59
2023-03-22T10:59:28.106Z,982.57
2023-03-22T11:00:27.351Z,1013.43
2023-03-22T11:01:27.630Z,699.15
2023-03-22T11:02:27.918Z,990.57
2023-03-22T11:03:27.909Z,1142.92
2023-03-22T11:04:29.094Z,1032.66
2023-03-22T11:05:28.266Z,907.55
2023-03-22T11:06:27.537Z,821.99
2023-03-22T11:07:28.753Z,700.11
2023-03-22T11:08:28.228Z,899.24
2023-03-22T11:09:27.157Z,900.92
2023-03-22T11:10:28.384Z,916.19
2023-03-22T11:11:27.637Z,857.45
2023-03-22T11:12:27.846Z,880.38
2023-03-22T11:13:29.035Z,878.75
2023-03-22T11:14:27.259Z,825.79
2023-03-22T11:15:27.486Z,818.83
2023-03-22T11:16:28.670Z,817.35
2023-03-22T11:17:28.845Z,776.27
2023-03-22T11:18:28.046Z,741.80
2023-03-22T11:19:27.309Z,745.85
2023-03-22T11:20:29.802Z,738.61
2023-03-22T11:21:27.751Z,718.82
2023-03-22T11:22:27.969Z,722.67
2023-03-22T11:23:27.136Z,727.59
2023-03-22T11:24:28.333Z,761.45
2023-03-22T11:25:28.618Z,757.35
2023-03-22T11:26:27.841Z,773.44
2023-03-22T11:27:27.929Z,759.20
2023-03-22T11:28:28.129Z,724.97
2023-03-22T11:29:27.440Z,718.69
2023-03-22T11:30:28.597Z,754.05
2023-03-22T11:31:28.926Z,743.53
2023-03-22T11:32:27.167Z,697.41
2023-03-22T11:33:28.266Z,764.64
2023-03-22T11:34:27.526Z,722.98
2023-03-22T11:35:27.835Z,704.24
2023-03-22T11:36:27.888Z,717.09
2023-03-22T11:37:27.170Z,745.34
2023-03-22T11:38:28.352Z,714.34
2023-03-22T11:39:28.576Z,720.24
2023-03-22T11:40:27.802Z,736.51
2023-03-22T11:41:27.915Z,738.18
2023-03-22T11:42:28.161Z,767.28
2023-03-22T11:43:28.418Z,770.12
2023-03-22T11:44:27.611Z,711.60
2023-03-22T11:45:26.826Z,678.15
2023-03-22T11:46:28.042Z,692.27
2023-03-22T11:47:27.318Z,777.75
2023-03-22T11:48:27.683Z,795.33
2023-03-22T11:49:26.658Z,711.84
2023-03-22T11:50:27.830Z,712.89
2023-03-22T11:51:28.061Z,681.29
2023-03-22T11:52:28.277Z,670.54
2023-03-22T11:53:28.586Z,683.25
2023-03-22T11:54:27.688Z,676.46
2023-03-22T11:55:27.933Z,688.98
2023-03-22T11:56:28.135Z,672.70
2023-03-22T11:57:28.342Z,668.43
2023-03-22T11:58:26.676Z,691.50
2023-03-22T11:59:27.730Z,677.18
2023-03-22T12:00:27.957Z,649.92
2023-03-22T12:01:28.201Z,621.31
2023-03-22T12:02:28.570Z,598.01
2023-03-22T12:03:26.693Z,586.90
2023-03-22T12:04:26.829Z,579.82
2023-03-22T12:05:27.958Z,583.11
2023-03-22T12:06:28.209Z,574.94
2023-03-22T12:07:27.431Z,558.42
2023-03-22T12:08:26.592Z,542.13
2023-03-22T12:09:26.785Z,527.43
2023-03-22T12:10:28.034Z,512.49
2023-03-22T12:11:27.187Z,500.62
2023-03-22T12:12:26.390Z,492.50
2023-03-22T12:13:26.518Z,487.17
2023-03-22T12:14:26.739Z,484.34
2023-03-22T12:15:27.924Z,483.24
2023-03-22T12:16:27.334Z,481.78
2023-03-22T12:17:26.364Z,479.70
2023-03-22T12:18:27.499Z,478.22
2023-03-22T12:19:26.756Z,477.48
2023-03-22T12:20:26.965Z,477.42
2023-03-22T12:21:27.197Z,477.09
2023-03-22T12:22:26.407Z,477.75
2023-03-22T12:23:26.650Z,481.70
2023-03-22T12:24:26.810Z,489.12
2023-03-22T12:25:27.949Z,500.17
2023-03-22T12:26:26.177Z,513.60
2023-03-22T12:27:26.416Z,532.34
2023-03-22T12:28:26.631Z,566.88
2023-03-22T12:29:26.817Z,556.25
2023-03-22T12:30:28.063Z,533.89
2023-03-22T12:31:27.204Z,506.72
2023-03-22T12:32:26.526Z,487.55
2023-03-22T12:33:26.816Z,486.55
2023-03-22T12:34:26.909Z,482.43
2023-03-22T12:35:26.117Z,484.89
2023-03-22T12:36:26.429Z,503.72
2023-03-22T12:37:26.582Z,533.40
2023-03-22T12:38:26.867Z,540.25
2023-03-22T12:39:26.038Z,510.93
2023-03-22T12:40:26.285Z,480.50
2023-03-22T12:41:26.498Z,449.32
2023-03-22T12:42:27.353Z,425.05
2023-03-22T12:43:25.977Z,405.72
2023-03-22T12:44:26.187Z,386.86
2023-03-22T12:45:26.380Z,362.24
2023-03-22T12:46:26.643Z,325.53
2023-03-22T12:47:26.891Z,318.51
2023-03-22T12:48:26.179Z,319.24
2023-03-22T12:49:26.292Z,320.93
2023-03-22T12:50:26.552Z,316.82
2023-03-22T12:51:26.748Z,300.64
2023-03-22T12:52:29.771Z,282.74
2023-03-22T12:53:27.143Z,269.44